createdAt,value
2023-03-02T00:02:01.371Z,5.33
2023-03-02T00:04:45.475Z,4.77
2023-03-02T00:07:20.025Z,5.80
2023-03-02T00:09:48.259Z,5.93
2023-03-02T00:12:16.090Z,5.70
2023-03-02T00:14:43.146Z,5.57
2023-03-02T00:17:10.741Z,5.93
2023-03-02T00:19:37.990Z,5.53
2023-03-02T00:22:05.271Z,5.40
2023-03-02T00:24:32.554Z,5.90
2023-03-02T00:26:59.528Z,5.53
2023-03-02T00:29:26.581Z,5.53
2023-03-02T00:31:54.408Z,6.13
2023-03-02T00:34:21.465Z,5.83
2023-03-02T00:36:49.696Z,6.10
2023-03-02T00:39:20.364Z,6.13
2023-03-02T00:41:48.621Z,5.10
2023-03-02T00:44:17.854Z,6.13
2023-03-02T00:46:45.222Z,5.60
2023-03-02T00:49:13.143Z,6.13
2023-03-02T00:51:40.138Z,5.77
2023-03-02T00:54:07.195Z,6.37
2023-03-02T00:56:34.694Z,6.60
2023-03-02T00:59:06.467Z,5.77
2023-03-02T01:01:33.495Z,5.50
2023-03-02T01:04:00.450Z,6.27
2023-03-02T01:06:27.412Z,5.23
2023-03-02T01:08:54.461Z,5.23
2023-03-02T01:11:23.235Z,5.30
2023-03-02T01:13:50.521Z,6.13
2023-03-02T01:16:17.695Z,6.00
2023-03-02T01:18:44.748Z,6.60
2023-03-02T01:21:15.202Z,5.70
2023-03-02T01:23:42.573Z,5.77
2023-03-02T01:26:10.191Z,5.93
2023-03-02T01:28:37.347Z,6.00
2023-03-02T01:31:04.865Z,5.87
2023-03-02T01:33:32.598Z,5.90
2023-03-02T01:35:59.803Z,5.97
2023-03-02T01:38:27.148Z,6.07
2023-03-02T01:40:54.263Z,6.07
2023-03-02T01:43:21.292Z,6.03
2023-03-02T01:45:53.551Z,6.20
2023-03-02T01:48:32.723Z,5.90
2023-03-02T01:51:02.485Z,5.43
2023-03-02T01:53:32.840Z,6.07
2023-03-02T01:56:01.898Z,5.90
2023-03-02T01:58:34.573Z,6.50
2023-03-02T02:01:01.610Z,5.57
2023-03-02T02:03:31.541Z,5.80
2023-03-02T02:06:33.333Z,5.57
2023-03-02T02:09:02.153Z,5.87
2023-03-02T02:11:29.155Z,5.20
2023-03-02T02:14:01.023Z,5.77
2023-03-02T02:16:31.660Z,5.40
2023-03-02T02:18:58.976Z,5.87
2023-03-02T02:21:28.032Z,5.87
2023-03-02T02:24:19.786Z,5.73
2023-03-02T02:26:55.081Z,5.77
2023-03-02T02:29:34.272Z,6.00
2023-03-02T02:32:06.977Z,5.60
2023-03-02T02:34:42.564Z,5.37
2023-03-02T02:37:23.840Z,5.53
2023-03-02T02:39:51.905Z,5.47
2023-03-02T02:42:32.074Z,5.50
2023-03-02T02:45:06.650Z,5.87
2023-03-02T02:47:34.397Z,6.33
2023-03-02T02:50:01.735Z,5.50
2023-03-02T02:52:29.244Z,5.73
2023-03-02T02:54:57.861Z,5.50
2023-03-02T02:57:28.665Z,5.67
2023-03-02T03:00:00.537Z,5.83
2023-03-02T03:02:30.963Z,6.60
2023-03-02T03:05:02.776Z,6.93
2023-03-02T03:07:31.874Z,6.77
2023-03-02T03:10:25.260Z,7.17
2023-03-02T03:12:52.491Z,7.20
2023-03-02T03:15:19.487Z,7.40
2023-03-02T03:17:57.328Z,7.80
2023-03-02T03:20:26.259Z,9.33
2023-03-02T03:22:53.614Z,8.87
2023-03-02T03:25:22.170Z,8.07
2023-03-02T03:27:50.127Z,8.70
2023-03-02T03:30:17.602Z,9.37
2023-03-02T03:32:45.035Z,9.33
2023-03-02T03:35:12.629Z,10.63
2023-03-02T03:37:41.208Z,11.27
2023-03-02T03:40:10.253Z,11.90
2023-03-02T03:42:39.839Z,12.93
2023-03-02T03:45:09.000Z,13.10
2023-03-02T03:47:36.974Z,12.43
2023-03-02T03:50:04.122Z,14.50
2023-03-02T03:52:31.206Z,14.27
2023-03-02T03:55:00.479Z,14.30
2023-03-02T03:57:28.750Z,15.13
2023-03-02T03:59:55.836Z,16.23
2023-03-02T04:02:23.036Z,16.03
2023-03-02T04:04:50.070Z,18.53
2023-03-02T04:07:17.326Z,16.77
2023-03-02T04:09:44.695Z,17.83
2023-03-02T04:12:11.744Z,18.23
2023-03-02T04:14:38.823Z,18.17
2023-03-02T04:17:07.200Z,18.80
2023-03-02T04:19:35.677Z,17.07
2023-03-02T04:22:04.266Z,19.33
2023-03-02T04:24:31.892Z,19.83
2023-03-02T04:26:59.055Z,18.30
2023-03-02T04:29:26.439Z,20.07
2023-03-02T04:31:53.472Z,21.33
2023-03-02T04:34:20.705Z,19.67
2023-03-02T04:36:47.673Z,20.47
2023-03-02T04:39:16.780Z,20.17
2023-03-02T04:41:44.741Z,19.63
2023-03-02T04:44:12.530Z,21.00
2023-03-02T04:46:41.808Z,19.97
2023-03-02T04:49:11.688Z,20.63
2023-03-02T04:51:41.600Z,21.83
2023-03-02T04:54:14.103Z,21.93
2023-03-02T04:56:41.111Z,22.27
2023-03-02T04:59:10.014Z,21.23
2023-03-02T05:01:36.997Z,23.03
2023-03-02T05:04:04.559Z,21.83
2023-03-02T05:06:31.889Z,24.00
2023-03-02T05:09:00.253Z,21.90
2023-03-02T05:11:28.430Z,21.93
2023-03-02T05:14:01.384Z,22.33
2023-03-02T05:16:32.040Z,22.20
2023-03-02T05:19:00.843Z,21.07
2023-03-02T05:21:28.399Z,21.17
2023-03-02T05:23:55.484Z,21.23
2023-03-02T05:26:22.936Z,22.27
2023-03-02T05:28:51.527Z,22.60
2023-03-02T05:31:30.930Z,22.60
2023-03-02T05:33:58.252Z,21.47
2023-03-02T05:36:25.197Z,21.83
2023-03-02T05:38:52.146Z,21.37
2023-03-02T05:41:19.264Z,22.30
2023-03-02T05:43:46.292Z,21.03
2023-03-02T05:46:13.233Z,21.33
2023-03-02T05:48:56.751Z,21.60
2023-03-02T05:51:23.717Z,21.60
2023-03-02T05:53:50.687Z,21.47
2023-03-02T05:56:17.906Z,21.77
2023-03-02T05:58:44.931Z,20.87
2023-03-02T06:01:15.151Z,20.87
2023-03-02T06:03:43.504Z,21.43
2023-03-02T06:06:14.249Z,20.93
2023-03-02T06:08:42.960Z,20.40
2023-03-02T06:11:11.190Z,20.57
2023-03-02T06:13:38.556Z,20.37
2023-03-02T06:16:06.162Z,20.30
2023-03-02T06:18:33.669Z,20.47
2023-03-02T06:21:00.591Z,19.70
2023-03-02T06:23:27.829Z,21.43
2023-03-02T06:25:55.064Z,20.80
2023-03-02T06:28:22.138Z,20.57
2023-03-02T06:30:49.968Z,20.70
2023-03-02T06:33:21.638Z,20.50
2023-03-02T06:35:49.668Z,22.23
2023-03-02T06:38:17.814Z,20.40
2023-03-02T06:40:45.149Z,20.33
2023-03-02T06:43:12.301Z,20.43
2023-03-02T06:45:39.422Z,21.30
2023-03-02T06:48:07.837Z,20.23
2023-03-02T06:50:34.983Z,19.67
2023-03-02T06:53:02.174Z,20.40
2023-03-02T06:55:30.176Z,20.50
2023-03-02T06:57:57.093Z,18.90
2023-03-02T07:00:28.411Z,19.00
2023-03-02T07:02:56.452Z,20.03
2023-03-02T07:05:24.508Z,19.07
2023-03-02T07:07:51.578Z,18.60
2023-03-02T07:10:18.876Z,19.50
2023-03-02T07:12:45.877Z,19.83
2023-03-02T07:15:14.477Z,20.17
2023-03-02T07:17:43.198Z,19.27
2023-03-02T07:20:12.183Z,21.13
2023-03-02T07:22:39.709Z,20.03
2023-03-02T07:25:07.727Z,20.80
2023-03-02T07:27:34.814Z,20.47
2023-03-02T07:30:01.796Z,21.97
2023-03-02T07:32:28.898Z,19.77
2023-03-02T07:34:55.877Z,20.23
2023-03-02T07:37:22.964Z,20.17
2023-03-02T07:39:50.332Z,20.60
2023-03-02T07:42:17.975Z,21.17
2023-03-02T07:44:44.920Z,21.80
2023-03-02T07:47:12.032Z,20.50
2023-03-02T07:49:39.239Z,21.20
2023-03-02T07:52:06.793Z,21.97
2023-03-02T07:54:33.839Z,21.77
2023-03-02T07:57:00.927Z,22.53
2023-03-02T07:59:28.520Z,21.50
2023-03-02T08:01:58.141Z,22.50
2023-03-02T08:04:25.693Z,22.53
2023-03-02T08:06:52.728Z,22.07
2023-03-02T08:09:19.824Z,21.30
2023-03-02T08:11:47.965Z,20.20
2023-03-02T08:14:15.956Z,20.37
2023-03-02T08:16:43.059Z,21.70
2023-03-02T08:19:10.640Z,20.93
2023-03-02T08:21:37.632Z,20.40
2023-03-02T08:24:05.286Z,20.83
2023-03-02T08:26:32.526Z,21.43
2023-03-02T08:28:59.888Z,20.80
2023-03-02T08:31:27.492Z,20.90
2023-03-02T08:33:54.588Z,20.20
2023-03-02T08:36:22.040Z,21.00
2023-03-02T08:38:49.769Z,21.27
2023-03-02T08:41:20.124Z,21.58
2023-03-02T08:43:47.966Z,21.77
2023-03-02T08:46:18.046Z,21.85
2023-03-02T08:48:45.795Z,20.30
2023-03-02T08:51:24.566Z,20.35
2023-03-02T08:53:55.379Z,19.67
2023-03-02T08:56:23.650Z,20.33
2023-03-02T08:58:52.224Z,19.03
2023-03-02T09:01:22.979Z,20.48
2023-03-02T09:03:50.489Z,19.77
2023-03-02T09:06:18.244Z,20.20
2023-03-02T09:08:45.535Z,18.38
2023-03-02T09:11:12.576Z,20.05
2023-03-02T09:13:39.647Z,18.17
2023-03-02T09:16:08.651Z,19.10
2023-03-02T09:18:36.649Z,18.15
2023-03-02T09:21:05.263Z,18.38
2023-03-02T09:23:33.170Z,18.40
2023-03-02T09:26:00.158Z,18.23
2023-03-02T09:28:27.174Z,19.77
2023-03-02T09:31:02.927Z,17.58
2023-03-02T09:33:30.793Z,19.00
2023-03-02T09:35:57.984Z,17.10
2023-03-02T09:38:25.210Z,17.38
2023-03-02T09:41:20.356Z,17.48
2023-03-02T09:44:33.433Z,16.77
2023-03-02T09:47:04.920Z,18.77
2023-03-02T09:49:37.562Z,17.63
2023-03-02T09:52:29.735Z,17.60
2023-03-02T09:55:11.419Z,17.83
2023-03-02T09:57:39.988Z,17.15
2023-03-02T10:00:31.177Z,15.35
2023-03-02T10:03:14.960Z,15.32
2023-03-02T10:05:45.166Z,15.63
2023-03-02T10:08:18.427Z,16.73
2023-03-02T10:11:07.618Z,14.25
2023-03-02T10:13:44.626Z,15.85
2023-03-02T10:16:28.991Z,16.05
2023-03-02T10:19:05.396Z,16.75
2023-03-02T10:21:38.556Z,15.95
2023-03-02T10:24:14.294Z,15.52
2023-03-02T10:26:44.271Z,15.85
2023-03-02T10:29:29.769Z,16.55
2023-03-02T10:32:06.517Z,15.60
2023-03-02T10:34:36.102Z,16.60
2023-03-02T10:37:03.073Z,15.35
2023-03-02T10:39:30.041Z,15.77
2023-03-02T10:42:02.584Z,15.00
2023-03-02T10:44:35.248Z,16.42
2023-03-02T10:47:02.179Z,15.32
2023-03-02T10:49:29.130Z,16.80
2023-03-02T10:52:02.400Z,13.80
2023-03-02T10:54:31.175Z,14.30
2023-03-02T10:57:04.201Z,14.95
2023-03-02T10:59:39.793Z,15.95
2023-03-02T11:02:27.919Z,15.70
2023-03-02T11:04:58.177Z,15.95
2023-03-02T11:07:28.613Z,14.93
2023-03-02T11:10:32.534Z,15.40
2023-03-02T11:13:01.302Z,14.75
2023-03-02T11:15:34.226Z,14.70
2023-03-02T11:18:12.511Z,15.95
2023-03-02T11:20:43.238Z,16.08
2023-03-02T11:23:35.143Z,15.20
2023-03-02T11:26:17.262Z,13.63
2023-03-02T11:29:31.613Z,13.65
2023-03-02T11:32:18.521Z,13.73
2023-03-02T11:34:57.285Z,14.65
2023-03-02T11:37:39.991Z,13.88
2023-03-02T11:40:19.107Z,14.23
2023-03-02T11:42:47.139Z,14.47
2023-03-02T11:45:14.029Z,15.00
2023-03-02T11:48:08.139Z,14.60
2023-03-02T11:50:45.972Z,14.80
2023-03-02T11:53:19.412Z,14.90
2023-03-02T11:55:48.794Z,14.83
2023-03-02T11:58:28.428Z,15.80
2023-03-02T12:00:57.019Z,14.87
2023-03-02T12:03:33.041Z,13.83
2023-03-02T12:06:26.387Z,14.67
2023-03-02T12:09:07.104Z,15.17
2023-03-02T12:11:38.880Z,13.80
2023-03-02T12:14:29.835Z,14.80
2023-03-02T12:17:20.201Z,15.23
2023-03-02T12:19:48.153Z,13.87
2023-03-02T12:22:26.909Z,14.33
2023-03-02T12:25:19.288Z,14.40
2023-03-02T12:27:49.653Z,14.70
2023-03-02T12:30:16.955Z,14.03
2023-03-02T12:32:48.461Z,14.80
2023-03-02T12:35:20.850Z,14.47
2023-03-02T12:37:47.875Z,14.60
2023-03-02T12:40:55.919Z,12.63
2023-03-02T12:43:26.042Z,13.53
2023-03-02T12:45:58.868Z,14.33
2023-03-02T12:48:36.142Z,13.77
2023-03-02T12:51:05.970Z,14.33
2023-03-02T12:53:32.997Z,14.80
2023-03-02T12:56:00.067Z,15.37
2023-03-02T12:58:29.070Z,13.50
2023-03-02T13:00:58.516Z,15.00
2023-03-02T13:03:27.181Z,13.70
2023-03-02T13:06:16.986Z,14.63
2023-03-02T13:08:48.309Z,14.10
2023-03-02T13:11:27.401Z,14.53
2023-03-02T13:13:54.504Z,14.10
2023-03-02T13:16:31.844Z,13.70
2023-03-02T13:19:03.922Z,12.87
2023-03-02T13:21:38.942Z,13.20
2023-03-02T13:24:33.910Z,12.77
2023-03-02T13:27:16.197Z,13.13
2023-03-02T13:29:43.204Z,12.67
2023-03-02T13:32:23.764Z,13.53
2023-03-02T13:35:02.617Z,11.57
2023-03-02T13:37:34.847Z,13.30
2023-03-02T13:40:04.332Z,12.80
2023-03-02T13:42:39.843Z,13.50
2023-03-02T13:45:31.115Z,12.70
2023-03-02T13:48:15.505Z,11.23
2023-03-02T13:51:01.566Z,12.87
2023-03-02T13:53:31.270Z,12.20
2023-03-02T13:56:00.357Z,12.37
2023-03-02T13:58:30.130Z,12.53
2023-03-02T14:00:57.623Z,12.27
2023-03-02T14:03:28.041Z,13.83
2023-03-02T14:05:56.378Z,12.60
2023-03-02T14:08:24.038Z,12.27
2023-03-02T14:10:53.950Z,12.73
2023-03-02T14:13:39.962Z,11.60
2023-03-02T14:16:07.441Z,11.17
2023-03-02T14:19:02.088Z,10.50
2023-03-02T14:21:29.204Z,12.37
2023-03-02T14:23:56.335Z,13.10
2023-03-02T14:26:34.974Z,13.70
2023-03-02T14:29:28.172Z,13.73
2023-03-02T14:31:56.991Z,14.00
2023-03-02T14:34:24.253Z,13.40
2023-03-02T14:36:53.625Z,13.37
2023-03-02T14:39:34.527Z,15.37
2023-03-02T14:42:01.681Z,14.40
2023-03-02T14:44:28.704Z,14.03
2023-03-02T14:46:57.210Z,15.10
2023-03-02T14:49:25.297Z,14.33
2023-03-02T14:51:58.333Z,15.57
2023-03-02T14:54:26.284Z,15.13
2023-03-02T14:56:53.432Z,15.80
2023-03-02T14:59:20.517Z,16.13
2023-03-02T15:01:47.519Z,17.13
2023-03-02T15:04:14.538Z,15.70
2023-03-02T15:06:43.569Z,17.43
2023-03-02T15:09:11.550Z,16.70
2023-03-02T15:11:38.630Z,16.23
2023-03-02T15:14:05.604Z,16.87
2023-03-02T15:16:32.578Z,17.07
2023-03-02T15:18:59.601Z,18.73
2023-03-02T15:21:26.560Z,19.27
2023-03-02T15:23:53.537Z,18.77
2023-03-02T15:26:20.582Z,16.93
2023-03-02T15:28:51.866Z,20.13
2023-03-02T15:31:19.548Z,20.90
2023-03-02T15:33:46.690Z,19.53
2023-03-02T15:36:14.494Z,20.03
2023-03-02T15:38:41.776Z,21.00
2023-03-02T15:41:13.596Z,18.87
2023-03-02T15:43:40.630Z,17.93
2023-03-02T15:46:09.789Z,18.23
2023-03-02T15:48:37.669Z,19.27
2023-03-02T15:51:08.675Z,20.23
2023-03-02T15:53:38.352Z,18.73
2023-03-02T15:56:13.928Z,19.50
2023-03-02T15:58:41.179Z,17.53
2023-03-02T16:01:09.927Z,19.23
2023-03-02T16:03:38.245Z,18.87
2023-03-02T16:06:05.838Z,19.40
2023-03-02T16:08:32.864Z,18.40
2023-03-02T16:11:06.921Z,18.43
2023-03-02T16:13:34.496Z,17.47
2023-03-02T16:16:03.308Z,18.83
2023-03-02T16:18:30.685Z,18.17
2023-03-02T16:20:57.645Z,19.33
2023-03-02T16:23:24.644Z,19.13
2023-03-02T16:25:52.449Z,18.30
2023-03-02T16:28:20.060Z,19.50
2023-03-02T16:30:47.683Z,20.10
2023-03-02T16:33:17.393Z,19.87
2023-03-02T16:35:44.868Z,18.33
2023-03-02T16:38:12.043Z,18.40
2023-03-02T16:40:40.558Z,19.43
2023-03-02T16:43:10.548Z,18.67
2023-03-02T16:45:37.827Z,18.50
2023-03-02T16:48:05.740Z,18.73
2023-03-02T16:50:33.264Z,20.53
2023-03-02T16:53:00.383Z,19.57
2023-03-02T16:55:27.724Z,18.87
2023-03-02T16:57:54.721Z,19.43
2023-03-02T17:00:22.950Z,20.47
2023-03-02T17:02:51.070Z,20.60
2023-03-02T17:05:19.834Z,20.73
2023-03-02T17:07:47.327Z,20.00
2023-03-02T17:10:19.859Z,18.90
2023-03-02T17:12:47.242Z,19.73
2023-03-02T17:15:14.438Z,20.60
2023-03-02T17:17:41.645Z,20.83
2023-03-02T17:20:11.390Z,20.00
2023-03-02T17:22:38.707Z,20.60
2023-03-02T17:25:06.457Z,19.57
2023-03-02T17:27:33.398Z,18.97
2023-03-02T17:30:00.512Z,19.70
2023-03-02T17:32:27.638Z,20.37
2023-03-02T17:34:54.769Z,20.90
2023-03-02T17:37:22.022Z,19.87
2023-03-02T17:39:52.834Z,18.63
2023-03-02T17:42:19.918Z,20.43
2023-03-02T17:44:46.839Z,21.90
2023-03-02T17:47:15.506Z,21.20
2023-03-02T17:49:45.772Z,20.87
2023-03-02T17:52:14.262Z,19.57
2023-03-02T17:54:42.071Z,21.43
2023-03-02T17:57:09.320Z,20.90
2023-03-02T17:59:36.458Z,19.50
2023-03-02T18:02:03.855Z,20.83
2023-03-02T18:04:30.890Z,20.83
2023-03-02T18:06:57.995Z,20.63
2023-03-02T18:09:24.966Z,21.23
2023-03-02T18:11:51.961Z,22.97
2023-03-02T18:14:20.640Z,20.97
2023-03-02T18:16:48.266Z,21.37
2023-03-02T18:19:15.420Z,20.63
2023-03-02T18:21:42.663Z,20.87
2023-03-02T18:24:10.181Z,21.27
2023-03-02T18:26:37.743Z,21.17
2023-03-02T18:29:05.496Z,20.10
2023-03-02T18:31:34.198Z,21.20
2023-03-02T18:34:02.282Z,20.27
2023-03-02T18:36:30.177Z,22.67
2023-03-02T18:38:57.556Z,20.30
2023-03-02T18:41:25.048Z,19.90
2023-03-02T18:43:52.514Z,20.80
2023-03-02T18:46:22.532Z,20.97
2023-03-02T18:48:50.705Z,19.47
2023-03-02T18:51:19.216Z,20.87
2023-03-02T18:53:47.103Z,20.33
2023-03-02T18:56:14.706Z,19.37
2023-03-02T18:58:42.068Z,19.30
2023-03-02T19:01:09.783Z,20.00
2023-03-02T19:03:38.690Z,19.33
2023-03-02T19:06:07.442Z,19.30
2023-03-02T19:08:37.602Z,19.67
2023-03-02T19:11:06.198Z,18.73
2023-03-02T19:13:33.608Z,21.83
2023-03-02T19:16:02.120Z,19.30
2023-03-02T19:18:30.102Z,19.10
2023-03-02T19:20:57.833Z,19.67
2023-03-02T19:23:25.372Z,19.77
2023-03-02T19:25:53.295Z,18.73
2023-03-02T19:28:21.770Z,18.70
2023-03-02T19:30:49.571Z,19.73
2023-03-02T19:33:16.568Z,18.40
2023-03-02T19:35:43.978Z,19.07
2023-03-02T19:38:11.675Z,19.37
2023-03-02T19:40:38.994Z,19.60
2023-03-02T19:43:06.285Z,18.67
2023-03-02T19:45:35.156Z,18.07
2023-03-02T19:48:03.953Z,19.23
2023-03-02T19:50:32.965Z,18.97
2023-03-02T19:53:03.239Z,18.87
2023-03-02T19:55:30.169Z,20.03
2023-03-02T19:58:00.157Z,19.07
2023-03-02T20:00:29.813Z,19.10
2023-03-02T20:02:59.983Z,19.27
2023-03-02T20:05:27.867Z,19.73
2023-03-02T20:07:55.386Z,18.60
2023-03-02T20:10:33.394Z,19.40
2023-03-02T20:13:00.916Z,19.40
2023-03-02T20:15:32.437Z,20.43
2023-03-02T20:18:02.648Z,17.97
2023-03-02T20:20:31.343Z,18.73
2023-03-02T20:23:00.226Z,19.30
2023-03-02T20:25:28.501Z,17.43
2023-03-02T20:27:56.966Z,17.80
2023-03-02T20:30:31.717Z,17.73
2023-03-02T20:32:59.636Z,18.07
2023-03-02T20:35:30.623Z,17.33
2023-03-02T20:38:01.668Z,17.10
2023-03-02T20:40:29.550Z,16.83
2023-03-02T20:42:56.822Z,17.00
2023-03-02T20:45:24.378Z,16.93
2023-03-02T20:47:51.439Z,16.20
2023-03-02T20:50:22.044Z,16.77
2023-03-02T20:52:49.225Z,18.33
2023-03-02T20:55:16.619Z,15.77
2023-03-02T20:57:43.709Z,16.97
2023-03-02T21:00:16.861Z,17.23
2023-03-02T21:02:47.550Z,18.23
2023-03-02T21:05:15.736Z,17.43
2023-03-02T21:07:43.367Z,16.87
2023-03-02T21:10:16.100Z,17.33
2023-03-02T21:12:43.576Z,17.30
2023-03-02T21:15:11.105Z,16.93
2023-03-02T21:17:41.171Z,16.90
2023-03-02T21:20:09.280Z,17.27
2023-03-02T21:22:36.640Z,18.00
2023-03-02T21:25:04.013Z,17.97
2023-03-02T21:27:31.167Z,17.40
2023-03-02T21:29:58.196Z,17.03
2023-03-02T21:32:25.213Z,18.00
2023-03-02T21:34:54.264Z,16.37
2023-03-02T21:37:22.627Z,17.30
2023-03-02T21:39:53.426Z,17.77
2023-03-02T21:42:21.366Z,16.87
2023-03-02T21:44:49.657Z,16.93
2023-03-02T21:47:16.619Z,17.07
2023-03-02T21:49:45.698Z,16.83
2023-03-02T21:52:13.677Z,18.13
2023-03-02T21:54:40.784Z,15.83
2023-03-02T21:57:09.736Z,15.77
2023-03-02T21:59:39.847Z,17.93
2023-03-02T22:02:07.603Z,17.33
2023-03-02T22:04:38.064Z,15.57
2023-03-02T22:07:11.243Z,15.77
2023-03-02T22:09:38.376Z,15.80
2023-03-02T22:12:13.719Z,15.57
2023-03-02T22:14:40.876Z,16.20
2023-03-02T22:17:24.709Z,17.37
2023-03-02T22:19:53.162Z,15.30
2023-03-02T22:22:38.520Z,15.60
2023-03-02T22:25:15.902Z,16.97
2023-03-02T22:27:46.500Z,16.17
2023-03-02T22:30:24.217Z,15.80
2023-03-02T22:32:53.204Z,15.63
2023-03-02T22:35:27.127Z,16.83
2023-03-02T22:38:30.412Z,16.67
2023-03-02T22:40:58.355Z,15.77
2023-03-02T22:43:31.889Z,16.67
2023-03-02T22:46:17.589Z,16.27
2023-03-02T22:48:52.899Z,16.27
2023-03-02T22:51:24.033Z,16.70
2023-03-02T22:53:55.369Z,16.17
2023-03-02T22:56:43.647Z,15.67
2023-03-02T22:59:35.728Z,15.50
2023-03-02T23:02:26.242Z,15.90
2023-03-02T23:04:53.303Z,15.17
2023-03-02T23:07:22.311Z,14.83
2023-03-02T23:09:50.420Z,15.67
2023-03-02T23:12:21.415Z,14.53
2023-03-02T23:14:56.984Z,15.43
2023-03-02T23:17:39.130Z,14.90
2023-03-02T23:20:11.510Z,16.33
2023-03-02T23:22:42.648Z,15.37
2023-03-02T23:25:09.845Z,13.73
2023-03-02T23:27:39.967Z,15.27
2023-03-02T23:30:10.545Z,14.80
2023-03-02T23:32:39.526Z,15.03
2023-03-02T23:35:07.706Z,14.80
2023-03-02T23:37:35.736Z,14.67
2023-03-02T23:40:04.315Z,13.30
2023-03-02T23:42:31.698Z,15.43
2023-03-02T23:45:01.813Z,15.50
2023-03-02T23:47:28.735Z,15.00
2023-03-02T23:49:56.749Z,15.00
2023-03-02T23:52:26.921Z,14.90
2023-03-02T23:54:57.012Z,14.47
2023-03-02T23:57:24.275Z,15.07
2023-03-02T23:59:52.298Z,13.93
